Time;durP1;ratioP1;P1;durP2;ratioP2;P2;SDS_P1;SDS_P2;PMS_P1;PMS_P2;Temp;Humidity;BMP_temperature;BMP_pressure;BME280_temperature;BME280_humidity;BME280_pressure;Samples;Min_cycle;Max_cycle;Signal;HPM_P1;HPM_P2
2021/10/29 00:01:45;;;;;;;25.80;16.40;;;;;;;;;;5067868;28;20747;-69
2021/10/29 00:04:11;;;;;;;28.52;17.50;;;;;;;;;;5067053;28;20500;-69
2021/10/29 00:06:37;;;;;;;29.88;18.08;;;;;;;;;;5072843;28;20037;-70
2021/10/29 00:09:03;;;;;;;27.63;17.83;;;;;;;;;;5073201;28;20041;-69
2021/10/29 00:11:29;;;;;;;28.45;17.92;;;;;;;;;;5069935;28;20041;-69
2021/10/29 00:13:55;;;;;;;29.65;18.80;;;;;;;;;;5073848;28;20044;-69
2021/10/29 00:16:21;;;;;;;27.40;16.75;;;;;;;;;;5075787;28;20112;-69
2021/10/29 00:18:47;;;;;;;29.35;16.42;;;;;;;;;;5068620;28;20040;-68
2021/10/29 00:21:13;;;;;;;27.88;18.05;;;;;;;;;;5072461;28;20037;-69
2021/10/29 00:23:40;;;;;;;24.42;16.63;;;;;;;;;;5071476;28;20407;-69
2021/10/29 00:26:06;;;;;;;26.92;18.35;;;;;;;;;;5069058;28;20045;-69
2021/10/29 00:28:32;;;;;;;27.63;18.33;;;;;;;;;;5073199;28;20396;-69
2021/10/29 00:30:58;;;;;;;34.38;18.85;;;;;;;;;;5077474;28;20040;-70
2021/10/29 00:33:24;;;;;;;26.83;17.27;;;;;;;;;;5072577;28;20045;-69
2021/10/29 00:35:50;;;;;;;28.55;17.00;;;;;;;;;;5068174;28;20076;-69
2021/10/29 00:38:16;;;;;;;29.58;19.00;;;;;;;;;;5067538;28;20045;-69
2021/10/29 00:40:42;;;;;;;27.88;18.08;;;;;;;;;;5072651;28;20036;-69
2021/10/29 00:43:09;;;;;;;29.98;17.55;;;;;;;;;;5065875;28;20037;-69
2021/10/29 00:45:35;;;;;;;26.20;16.73;;;;;;;;;;5072915;28;20052;-69
2021/10/29 00:48:02;;;;;;;31.95;18.13;;;;;;;;;;5070065;28;20043;-69
2021/10/29 00:50:28;;;;;;;28.17;17.08;;;;;;;;;;5067450;28;20045;-69
2021/10/29 00:52:55;;;;;;;27.52;16.13;;;;;;;;;;5066078;28;20060;-69
2021/10/29 00:55:22;;;;;;;32.10;17.27;;;;;;;;;;5064737;28;20039;-69
2021/10/29 00:57:50;;;;;;;27.57;16.53;;;;;;;;;;5074932;28;20106;-69
2021/10/29 01:00:18;;;;;;;27.55;16.38;;;;;;;;;;5066948;28;20803;-69
2021/10/29 01:02:44;;;;;;;;;;;;;;;;;;5073167;28;20045;-69
2021/10/29 01:05:10;;;;;;;27.13;16.27;;;;;;;;;;5074119;28;19958;-69
2021/10/29 01:07:37;;;;;;;28.25;17.52;;;;;;;;;;5066831;28;20044;-70
2021/10/29 01:10:04;;;;;;;27.10;18.50;;;;;;;;;;5072766;28;20044;-69
2021/10/29 01:12:30;;;;;;;27.83;17.07;;;;;;;;;;5066776;28;20041;-69
2021/10/29 01:14:57;;;;;;;27.15;17.60;;;;;;;;;;5070415;28;20299;-69
2021/10/29 01:17:23;;;;;;;27.98;16.80;;;;;;;;;;5068014;28;20051;-70
2021/10/29 01:19:51;;;;;;;24.15;15.88;;;;;;;;;;5072928;28;20060;-69
2021/10/29 01:22:17;;;;;;;27.33;18.05;;;;;;;;;;5069659;28;20783;-69
2021/10/29 01:24:43;;;;;;;31.38;18.75;;;;;;;;;;5065008;28;20161;-69
2021/10/29 01:27:12;;;;;;;27.00;17.13;;;;;;;;;;5065556;28;20048;-69
2021/10/29 01:29:39;;;;;;;26.70;17.98;;;;;;;;;;5070517;28;20068;-69
2021/10/29 01:32:09;;;;;;;30.88;18.95;;;;;;;;;;5072279;28;20045;-69
2021/10/29 01:34:36;;;;;;;27.08;18.67;;;;;;;;;;5072373;28;20049;-69
2021/10/29 01:37:05;;;;;;;28.23;17.95;;;;;;;;;;5068149;28;20128;-69
2021/10/29 01:39:31;;;;;;;29.58;18.27;;;;;;;;;;5065819;28;20041;-69
2021/10/29 01:41:57;;;;;;;32.58;20.13;;;;;;;;;;5068646;28;20051;-69
2021/10/29 01:44:23;;;;;;;27.65;18.23;;;;;;;;;;5070988;28;20037;-69
2021/10/29 01:46:49;;;;;;;25.75;17.13;;;;;;;;;;5070058;28;20041;-69
2021/10/29 01:49:16;;;;;;;33.00;18.60;;;;;;;;;;5070628;28;20051;-69
2021/10/29 01:51:43;;;;;;;31.00;17.83;;;;;;;;;;5069056;28;20048;-69
2021/10/29 01:54:09;;;;;;;29.02;17.98;;;;;;;;;;5070119;28;20041;-69
2021/10/29 01:56:35;;;;;;;27.55;18.60;;;;;;;;;;5073273;28;20063;-71
2021/10/29 01:59:01;;;;;;;26.65;17.00;;;;;;;;;;5068823;28;20041;-71
2021/10/29 02:01:27;;;;;;;28.73;17.80;;;;;;;;;;5074150;28;20036;-69
2021/10/29 02:03:53;;;;;;;30.30;18.75;;;;;;;;;;5068987;28;20492;-69
2021/10/29 02:06:19;;;;;;;25.92;18.02;;;;;;;;;;5074694;28;20044;-69
2021/10/29 02:08:46;;;;;;;28.95;17.35;;;;;;;;;;5070667;28;20071;-70
2021/10/29 02:11:12;;;;;;;30.23;18.27;;;;;;;;;;5072607;28;20051;-70
2021/10/29 02:13:38;;;;;;;32.30;18.35;;;;;;;;;;5074241;28;20040;-69
2021/10/29 02:16:05;;;;;;;27.40;17.17;;;;;;;;;;5071989;28;20044;-70
2021/10/29 02:18:31;;;;;;;29.80;17.92;;;;;;;;;;5074756;28;20037;-69
2021/10/29 02:20:58;;;;;;;26.73;17.85;;;;;;;;;;5077727;28;20037;-69
2021/10/29 02:23:24;;;;;;;27.00;18.10;;;;;;;;;;5068399;28;20048;-70
2021/10/29 02:25:50;;;;;;;27.38;17.27;;;;;;;;;;5067858;28;20044;-70
2021/10/29 02:28:18;;;;;;;32.22;20.08;;;;;;;;;;5067968;28;20132;-70
2021/10/29 02:30:45;;;;;;;25.45;17.13;;;;;;;;;;5068613;28;20037;-70
2021/10/29 02:33:11;;;;;;;29.63;18.08;;;;;;;;;;5072817;28;20117;-70
2021/10/29 02:35:37;;;;;;;29.27;16.33;;;;;;;;;;5084623;28;20048;-70
2021/10/29 02:38:03;;;;;;;25.48;17.58;;;;;;;;;;5069723;28;20059;-70
2021/10/29 02:40:30;;;;;;;28.17;17.67;;;;;;;;;;5073331;28;20688;-70
2021/10/29 02:42:56;;;;;;;31.85;17.92;;;;;;;;;;5068613;28;20579;-70
2021/10/29 02:45:22;;;;;;;26.35;17.35;;;;;;;;;;5067578;28;20555;-70
2021/10/29 02:47:48;;;;;;;25.70;15.77;;;;;;;;;;5078196;28;20040;-70
2021/10/29 02:50:19;;;;;;;31.90;17.70;;;;;;;;;;5075756;28;20044;-70
2021/10/29 02:52:46;;;;;;;24.02;16.10;;;;;;;;;;5074166;28;20073;-70
2021/10/29 02:55:13;;;;;;;26.17;18.13;;;;;;;;;;5072723;28;20044;-70
2021/10/29 02:57:39;;;;;;;25.35;16.13;;;;;;;;;;5068717;28;20045;-70
2021/10/29 03:00:07;;;;;;;28.02;16.70;;;;;;;;;;5073181;28;20037;-70
2021/10/29 03:02:33;;;;;;;25.10;15.57;;;;;;;;;;5070405;28;20044;-70
2021/10/29 03:05:00;;;;;;;22.52;14.73;;;;;;;;;;5077244;28;20064;-70
2021/10/29 03:07:26;;;;;;;24.60;15.60;;;;;;;;;;5067414;28;20041;-70
2021/10/29 03:09:53;;;;;;;23.55;14.73;;;;;;;;;;5075475;28;20036;-69
2021/10/29 03:12:19;;;;;;;28.23;16.65;;;;;;;;;;5070296;28;20100;-70
2021/10/29 03:14:46;;;;;;;26.98;16.55;;;;;;;;;;5072969;28;20056;-70
2021/10/29 03:17:12;;;;;;;28.10;15.52;;;;;;;;;;5074637;28;20044;-70
2021/10/29 03:19:38;;;;;;;22.27;15.45;;;;;;;;;;5073565;28;20051;-70
2021/10/29 03:22:04;;;;;;;25.02;15.60;;;;;;;;;;5069267;28;20575;-70
2021/10/29 03:24:31;;;;;;;21.95;14.32;;;;;;;;;;5074054;28;20056;-70
2021/10/29 03:26:57;;;;;;;25.33;16.08;;;;;;;;;;5071610;28;20105;-70
2021/10/29 03:29:23;;;;;;;24.52;14.43;;;;;;;;;;5069929;28;20052;-70
2021/10/29 03:31:49;;;;;;;26.42;16.35;;;;;;;;;;5071877;28;20041;-70
2021/10/29 03:34:15;;;;;;;22.48;14.18;;;;;;;;;;5066723;28;20129;-70
2021/10/29 03:36:42;;;;;;;24.50;14.95;;;;;;;;;;5074823;28;20053;-70
2021/10/29 03:39:12;;;;;;;22.10;13.70;;;;;;;;;;5067557;28;20045;-70
2021/10/29 03:41:45;;;;;;;22.70;14.82;;;;;;;;;;5067122;28;20049;-70
2021/10/29 03:46:56;;;;;;;24.48;14.98;;;;;;;;;;5071300;28;20041;-70
2021/10/29 03:49:37;;;;;;;22.60;14.60;;;;;;;;;;5066712;28;20106;-70
2021/10/29 03:52:21;;;;;;;21.52;13.70;;;;;;;;;;5070474;28;20492;-70
2021/10/29 03:54:52;;;;;;;22.10;14.70;;;;;;;;;;5073689;28;20064;-70
2021/10/29 03:59:47;;;;;;;25.00;14.95;;;;;;;;;;5077075;28;20048;-70
2021/10/29 04:02:13;;;;;;;20.67;14.68;;;;;;;;;;5069364;28;20166;-70
2021/10/29 04:04:39;;;;;;;22.27;14.45;;;;;;;;;;5066552;28;20053;-70
2021/10/29 04:07:05;;;;;;;23.52;14.85;;;;;;;;;;5067754;28;20045;-70
2021/10/29 04:09:31;;;;;;;19.13;12.50;;;;;;;;;;5066539;28;20077;-70
2021/10/29 04:11:57;;;;;;;22.90;15.05;;;;;;;;;;5067253;28;20052;-70
2021/10/29 04:14:27;;;;;;;24.88;16.23;;;;;;;;;;5071960;28;20041;-70
2021/10/29 04:16:53;;;;;;;22.83;13.40;;;;;;;;;;5073411;28;20558;-70
2021/10/29 04:19:19;;;;;;;23.73;15.32;;;;;;;;;;5068752;28;20045;-70
2021/10/29 04:21:45;;;;;;;28.15;14.73;;;;;;;;;;5076284;28;20047;-70
2021/10/29 04:24:11;;;;;;;20.83;14.15;;;;;;;;;;5066041;28;20413;-70
2021/10/29 04:26:38;;;;;;;26.77;15.30;;;;;;;;;;5065688;28;20607;-71
2021/10/29 04:29:13;;;;;;;24.40;15.23;;;;;;;;;;5071915;28;20048;-70
2021/10/29 04:31:48;;;;;;;22.88;14.45;;;;;;;;;;5076202;28;20280;-70
2021/10/29 04:34:14;;;;;;;29.10;15.73;;;;;;;;;;5070662;28;20110;-70
2021/10/29 04:36:40;;;;;;;29.70;16.33;;;;;;;;;;5074351;28;20053;-70
2021/10/29 04:39:11;;;;;;;23.23;15.52;;;;;;;;;;5066700;28;20033;-70
2021/10/29 04:41:38;;;;;;;22.25;14.52;;;;;;;;;;5065281;28;20496;-70
2021/10/29 04:44:04;;;;;;;23.67;15.20;;;;;;;;;;5073431;28;20044;-71
2021/10/29 04:46:31;;;;;;;21.13;14.18;;;;;;;;;;5065767;28;20060;-70
2021/10/29 04:48:57;;;;;;;26.35;15.57;;;;;;;;;;5076084;28;20044;-70
2021/10/29 04:51:23;;;;;;;22.35;13.43;;;;;;;;;;5070127;28;20428;-70
2021/10/29 04:53:49;;;;;;;20.60;14.05;;;;;;;;;;5069051;28;20110;-70
2021/10/29 04:56:15;;;;;;;24.10;14.88;;;;;;;;;;5063349;28;20048;-70
2021/10/29 04:58:41;;;;;;;22.35;13.55;;;;;;;;;;5074303;28;20148;-71
2021/10/29 05:01:07;;;;;;;19.45;13.15;;;;;;;;;;5067465;28;20064;-70
2021/10/29 05:03:34;;;;;;;26.92;14.27;;;;;;;;;;5066372;28;20041;-70
2021/10/29 05:06:00;;;;;;;20.98;13.32;;;;;;;;;;5075212;28;20449;-70
2021/10/29 05:08:26;;;;;;;21.58;13.60;;;;;;;;;;5066393;28;20049;-70
2021/10/29 05:10:52;;;;;;;21.23;12.65;;;;;;;;;;5071255;28;20051;-70
2021/10/29 05:13:18;;;;;;;22.50;13.63;;;;;;;;;;5072177;28;20044;-70
2021/10/29 05:15:44;;;;;;;22.90;13.30;;;;;;;;;;5069294;28;20045;-70
2021/10/29 05:18:15;;;;;;;22.85;14.55;;;;;;;;;;5071276;28;20044;-70
2021/10/29 05:20:41;;;;;;;20.15;12.70;;;;;;;;;;5072902;28;20059;-70
2021/10/29 05:23:08;;;;;;;21.33;13.45;;;;;;;;;;5067705;28;20045;-70
2021/10/29 05:25:34;;;;;;;23.20;13.88;;;;;;;;;;5070647;28;20094;-70
2021/10/29 05:28:00;;;;;;;18.65;12.80;;;;;;;;;;5067050;28;20044;-70
2021/10/29 05:30:26;;;;;;;17.08;12.38;;;;;;;;;;5089554;28;20087;-71
2021/10/29 05:32:52;;;;;;;17.88;12.35;;;;;;;;;;5075224;28;20459;-71
2021/10/29 05:35:18;;;;;;;19.40;12.02;;;;;;;;;;5077123;28;20065;-70
2021/10/29 05:37:45;;;;;;;23.13;12.73;;;;;;;;;;5072875;28;20049;-70
2021/10/29 05:40:11;;;;;;;23.95;13.27;;;;;;;;;;5074445;28;20036;-70
2021/10/29 05:42:37;;;;;;;23.80;13.15;;;;;;;;;;5085197;28;20141;-70
2021/10/29 05:45:05;;;;;;;25.10;13.98;;;;;;;;;;5087225;28;20068;-70
2021/10/29 05:47:31;;;;;;;21.63;13.95;;;;;;;;;;5078665;28;20045;-70
2021/10/29 05:49:58;;;;;;;20.05;13.32;;;;;;;;;;5077928;28;20072;-70
2021/10/29 05:52:26;;;;;;;26.25;13.63;;;;;;;;;;5075325;28;20409;-71
2021/10/29 05:57:21;;;;;;;19.45;12.70;;;;;;;;;;5077318;28;20060;-70
2021/10/29 05:59:48;;;;;;;21.85;14.05;;;;;;;;;;5080560;28;20041;-70
2021/10/29 06:02:14;;;;;;;23.00;14.20;;;;;;;;;;5077009;28;20041;-70
2021/10/29 06:04:40;;;;;;;21.58;14.23;;;;;;;;;;5071227;28;20067;-70
2021/10/29 06:07:06;;;;;;;21.75;13.48;;;;;;;;;;5073124;28;20090;-70
2021/10/29 06:09:32;;;;;;;23.13;13.25;;;;;;;;;;5076637;28;20045;-70
2021/10/29 06:11:59;;;;;;;21.80;13.32;;;;;;;;;;5077354;28;20036;-70
2021/10/29 06:14:27;;;;;;;24.20;14.40;;;;;;;;;;5069674;28;20439;-70
2021/10/29 06:16:56;;;;;;;23.60;14.18;;;;;;;;;;5073708;28;20100;-70
2021/10/29 06:19:22;;;;;;;23.08;12.10;;;;;;;;;;5076178;28;20100;-70
2021/10/29 06:24:16;;;;;;;23.02;13.57;;;;;;;;;;5068373;28;20072;-70
2021/10/29 06:26:51;;;;;;;20.27;12.63;;;;;;;;;;5069074;28;20060;-70
2021/10/29 06:29:17;;;;;;;17.35;12.48;;;;;;;;;;5068230;28;20045;-70
2021/10/29 06:31:43;;;;;;;23.63;12.80;;;;;;;;;;5069574;28;20121;-73
2021/10/29 06:34:10;;;;;;;17.85;12.60;;;;;;;;;;5084030;28;20104;-70
2021/10/29 06:36:37;;;;;;;23.93;12.93;;;;;;;;;;5078177;28;20045;-70
2021/10/29 06:39:04;;;;;;;17.80;12.00;;;;;;;;;;5074204;28;20306;-70
2021/10/29 06:41:30;;;;;;;20.47;13.23;;;;;;;;;;5068200;28;20049;-70
2021/10/29 07:40:48;;;;;;;18.25;9.98;;;;;;;;;;5078321;28;20519;-66
2021/10/29 07:43:30;;;;;;;17.15;10.20;;;;;;;;;;5074848;28;20098;-64
2021/10/29 07:45:56;;;;;;;14.10;9.20;;;;;;;;;;5079780;28;20044;-67
2021/10/29 07:48:22;;;;;;;14.73;9.90;;;;;;;;;;5066205;28;20102;-67
2021/10/29 07:50:48;;;;;;;13.43;9.00;;;;;;;;;;5070483;28;20071;-67
2021/10/29 07:53:14;;;;;;;13.20;9.23;;;;;;;;;;5069459;28;20048;-67
2021/10/29 07:55:40;;;;;;;13.00;9.18;;;;;;;;;;5071756;28;20049;-67
2021/10/29 07:58:06;;;;;;;16.50;9.05;;;;;;;;;;5070419;28;20053;-67
2021/10/29 08:00:33;;;;;;;16.63;9.50;;;;;;;;;;5073116;28;20051;-67
2021/10/29 08:03:02;;;;;;;15.93;9.73;;;;;;;;;;5070974;28;20041;-66
2021/10/29 08:05:29;;;;;;;16.60;8.05;;;;;;;;;;5072425;28;20064;-67
2021/10/29 08:07:55;;;;;;;10.80;8.23;;;;;;;;;;5070797;28;20492;-67
2021/10/29 08:10:22;;;;;;;12.23;8.55;;;;;;;;;;5073341;28;20040;-68
2021/10/29 08:12:48;;;;;;;17.03;8.17;;;;;;;;;;5075846;28;20037;-67
2021/10/29 08:15:14;;;;;;;12.45;7.45;;;;;;;;;;5073429;28;20314;-67
2021/10/29 08:17:42;;;;;;;12.68;8.15;;;;;;;;;;5070777;28;20522;-67
2021/10/29 08:20:09;;;;;;;12.90;8.68;;;;;;;;;;5067962;28;20045;-67
2021/10/29 08:22:36;;;;;;;11.25;7.95;;;;;;;;;;5072806;28;20048;-67
2021/10/29 08:25:03;;;;;;;13.23;8.27;;;;;;;;;;5071048;28;20127;-68
2021/10/29 08:27:29;;;;;;;12.73;8.52;;;;;;;;;;5072433;28;20354;-67
2021/10/29 08:29:55;;;;;;;10.25;7.65;;;;;;;;;;5078665;28;20075;-67
2021/10/29 08:32:21;;;;;;;12.13;7.35;;;;;;;;;;5081292;28;20093;-66
2021/10/29 08:34:47;;;;;;;15.82;8.15;;;;;;;;;;5065169;28;20075;-65
2021/10/29 08:37:15;;;;;;;13.60;7.72;;;;;;;;;;5066931;28;20071;-66
2021/10/29 08:39:41;;;;;;;12.50;8.55;;;;;;;;;;5069902;28;20180;-74
2021/10/29 08:42:08;;;;;;;13.15;7.75;;;;;;;;;;5081259;28;20048;-74
2021/10/29 08:44:34;;;;;;;12.07;7.20;;;;;;;;;;5073544;28;20040;-75
2021/10/29 08:47:02;;;;;;;11.20;6.57;;;;;;;;;;5076167;28;20052;-73
2021/10/29 08:49:32;;;;;;;16.42;8.63;;;;;;;;;;5073260;28;20045;-73
2021/10/29 08:52:00;;;;;;;10.40;6.82;;;;;;;;;;5071670;28;20048;-71
2021/10/29 08:54:26;;;;;;;10.63;6.68;;;;;;;;;;5077849;28;20077;-69
2021/10/29 08:56:52;;;;;;;11.38;6.40;;;;;;;;;;5072978;28;20048;-69
2021/10/29 09:07:19;;;;;;;12.07;6.93;;;;;;;;;;5086935;28;20053;-69
2021/10/29 09:10:04;;;;;;;15.00;7.10;;;;;;;;;;5083714;28;20056;-67
2021/10/29 09:32:20;;;;;;;10.05;6.85;;;;;;;;;;5076119;28;20082;-78
2021/10/29 09:34:59;;;;;;;10.60;6.60;;;;;;;;;;5078497;28;20070;-68
2021/10/29 09:37:34;;;;;;;;;;;;;;;;;;5087736;28;20063;-68
2021/10/29 09:40:01;;;;;;;10.38;6.30;;;;;;;;;;5078836;28;20003;-65
2021/10/29 09:42:34;;;;;;;12.23;7.03;;;;;;;;;;5068719;28;20079;-65
2021/10/29 09:45:10;;;;;;;12.35;6.63;;;;;;;;;;5075620;28;20052;-65
2021/10/29 09:47:36;;;;;;;8.68;6.47;;;;;;;;;;5078159;28;20056;-66
2021/10/29 09:50:13;;;;;;;9.48;6.10;;;;;;;;;;5079018;28;20049;-75
2021/10/29 09:57:35;;;;;;;11.10;7.13;;;;;;;;;;5087800;28;20115;-66
2021/10/29 10:00:04;;;;;;;11.77;6.57;;;;;;;;;;5073916;28;20045;-71
2021/10/29 10:02:31;;;;;;;11.85;6.60;;;;;;;;;;5093544;28;20056;-72
2021/10/29 10:04:59;;;;;;;10.98;6.40;;;;;;;;;;5074300;28;20036;-66
2021/10/29 10:07:25;;;;;;;10.20;6.13;;;;;;;;;;5076359;28;20045;-71
2021/10/29 10:09:59;;;;;;;7.78;5.85;;;;;;;;;;5073263;28;20044;-71
2021/10/29 10:12:28;;;;;;;11.48;5.88;;;;;;;;;;5064340;28;20063;-71
2021/10/29 10:14:56;;;;;;;10.55;5.75;;;;;;;;;;5072997;28;20040;-71
2021/10/29 10:17:23;;;;;;;12.13;5.35;;;;;;;;;;5075218;28;20041;-71
2021/10/29 10:19:49;;;;;;;13.73;8.20;;;;;;;;;;5086409;28;20066;-69
2021/10/29 10:22:18;;;;;;;13.52;6.13;;;;;;;;;;5087991;28;20051;-70
2021/10/29 10:24:45;;;;;;;12.00;5.93;;;;;;;;;;5076002;28;20056;-71
2021/10/29 10:30:36;;;;;;;12.40;6.20;;;;;;;;;;5083938;28;20053;-69
2021/10/29 10:44:30;;;;;;;10.68;5.45;;;;;;;;;;5004274;28;20045;-69
2021/10/29 10:46:58;;;;;;;7.38;4.85;;;;;;;;;;5031525;28;20097;-70
2021/10/29 10:49:52;;;;;;;10.18;5.65;;;;;;;;;;5020454;28;22218;-69
2021/10/29 10:52:26;;;;;;;11.30;5.93;;;;;;;;;;5017245;28;20116;-70
2021/10/29 10:55:06;;;;;;;10.07;5.45;;;;;;;;;;5017017;28;20101;-76
2021/10/29 10:57:44;;;;;;;8.63;5.13;;;;;;;;;;5033752;28;20526;-66
2021/10/29 11:00:23;;;;;;;9.48;5.05;;;;;;;;;;5031967;28;20048;-67
2021/10/29 11:10:17;;;;;;;9.45;5.22;;;;;;;;;;5071052;28;20048;-68
2021/10/29 11:12:44;;;;;;;;;;;;;;;;;;5097703;28;20053;-67
2021/10/29 11:15:15;;;;;;;8.40;4.93;;;;;;;;;;5075281;28;19963;-68
2021/10/29 11:17:45;;;;;;;9.00;4.32;;;;;;;;;;5074936;28;20040;-68
2021/10/29 11:20:12;;;;;;;8.80;4.82;;;;;;;;;;5086230;28;20041;-68
2021/10/29 11:22:47;;;;;;;7.13;4.53;;;;;;;;;;5080248;28;20055;-66
2021/10/29 11:25:14;;;;;;;7.82;4.53;;;;;;;;;;5085708;28;20064;-73
2021/10/29 11:27:42;;;;;;;9.90;5.47;;;;;;;;;;5090074;28;20113;-76
2021/10/29 11:30:09;;;;;;;6.85;4.47;;;;;;;;;;5082721;28;20040;-73
2021/10/29 11:32:37;;;;;;;9.98;4.50;;;;;;;;;;5081040;28;20055;-72
2021/10/29 11:35:04;;;;;;;10.65;5.18;;;;;;;;;;5077917;28;20076;-73
2021/10/29 11:37:34;;;;;;;9.32;4.10;;;;;;;;;;5081430;28;20052;-72
2021/10/29 11:40:02;;;;;;;7.10;4.40;;;;;;;;;;5075794;28;20040;-72
2021/10/29 11:42:28;;;;;;;6.50;4.22;;;;;;;;;;5077330;28;20052;-70
2021/10/29 11:44:58;;;;;;;7.75;4.40;;;;;;;;;;5079021;28;20056;-72
2021/10/29 11:47:24;;;;;;;5.28;4.10;;;;;;;;;;5078765;28;20049;-71
2021/10/29 11:49:50;;;;;;;5.20;3.97;;;;;;;;;;5079678;28;20045;-69
2021/10/29 11:52:20;;;;;;;9.20;4.40;;;;;;;;;;5076739;28;20098;-70
2021/10/29 11:54:50;;;;;;;8.88;4.25;;;;;;;;;;5072051;28;20303;-69
2021/10/29 12:07:48;;;;;;;8.75;4.00;;;;;;;;;;5076288;28;20049;-71
2021/10/29 12:10:18;;;;;;;8.90;4.65;;;;;;;;;;5078412;28;21059;-69
2021/10/29 12:12:45;;;;;;;6.40;4.35;;;;;;;;;;5071201;28;20037;-69
2021/10/29 12:15:16;;;;;;;7.18;4.15;;;;;;;;;;5091657;28;20104;-67
2021/10/29 12:20:19;;;;;;;6.35;4.22;;;;;;;;;;5074481;28;20520;-66
2021/10/29 12:22:56;;;;;;;7.05;4.15;;;;;;;;;;5082861;28;20040;-67
2021/10/29 12:30:43;;;;;;;8.75;4.03;;;;;;;;;;5074962;28;20056;-67
2021/10/29 13:03:25;;;;;;;5.20;3.55;;;;;;;;;;5069237;28;20111;-65
2021/10/29 13:05:55;;;;;;;7.05;3.83;;;;;;;;;;5073812;28;20040;-65
2021/10/29 13:08:22;;;;;;;5.32;3.83;;;;;;;;;;5083101;28;20037;-67
2021/10/29 13:10:53;;;;;;;6.30;3.50;;;;;;;;;;5073923;28;20041;-65
2021/10/29 13:13:27;;;;;;;5.63;3.13;;;;;;;;;;5077223;28;20037;-77
2021/10/29 13:16:01;;;;;;;4.28;3.55;;;;;;;;;;5074063;28;20053;-75
2021/10/29 13:18:36;;;;;;;5.53;3.08;;;;;;;;;;5071426;28;20048;-75
2021/10/29 13:29:09;;;;;;;4.40;2.72;;;;;;;;;;5088658;28;20442;-65
2021/10/29 13:53:54;;;;;;;8.43;3.80;;;;;;;;;;5040444;28;20123;-66
2021/10/29 14:29:21;;;;;;;7.00;2.83;;;;;;;;;;5016890;28;20217;-66
2021/10/29 14:31:56;;;;;;;6.68;3.00;;;;;;;;;;5024359;28;20050;-65
2021/10/29 14:34:33;;;;;;;5.15;2.80;;;;;;;;;;5022145;28;20050;-66
2021/10/29 14:37:30;;;;;;;8.93;3.30;;;;;;;;;;5010251;28;20054;-65
2021/10/29 14:39:59;;;;;;;4.97;2.67;;;;;;;;;;5036574;28;20048;-66
2021/10/29 14:45:04;;;;;;;4.68;3.38;;;;;;;;;;5076271;28;20041;-66
2021/10/29 15:01:00;;;;;;;9.48;3.28;;;;;;;;;;5069786;28;20066;-66
2021/10/29 15:17:05;;;;;;;7.45;3.55;;;;;;;;;;5068851;28;20049;-67
2021/10/29 15:49:05;;;;;;;6.85;3.97;;;;;;;;;;5067241;28;20364;-65
2021/10/29 15:51:33;;;;;;;5.85;3.63;;;;;;;;;;5065194;28;20041;-65
2021/10/29 15:54:02;;;;;;;6.88;3.65;;;;;;;;;;5071594;28;20139;-65
2021/10/29 15:56:37;;;;;;;7.80;4.50;;;;;;;;;;5072213;28;20497;-66
2021/10/29 16:01:53;;;;;;;8.65;4.25;;;;;;;;;;5064309;28;20041;-66
2021/10/29 16:18:04;;;;;;;7.78;3.75;;;;;;;;;;5078508;28;20696;-65
2021/10/29 16:20:30;;;;;;;8.63;3.57;;;;;;;;;;5064899;28;20053;-65
2021/10/29 16:22:59;;;;;;;7.15;4.40;;;;;;;;;;5064547;28;20079;-65
2021/10/29 16:25:32;;;;;;;7.60;3.50;;;;;;;;;;5063811;28;20045;-66
2021/10/29 16:28:01;;;;;;;8.57;3.47;;;;;;;;;;5080472;28;20056;-67
2021/10/29 16:30:30;;;;;;;11.65;4.32;;;;;;;;;;5065958;28;20037;-65
2021/10/29 16:35:29;;;;;;;5.70;3.88;;;;;;;;;;5068143;28;20088;-66
2021/10/29 16:37:56;;;;;;;7.53;3.42;;;;;;;;;;5063052;28;20524;-66
2021/10/29 16:40:22;;;;;;;8.73;3.20;;;;;;;;;;5062559;28;20128;-64
2021/10/29 16:42:49;;;;;;;5.50;3.47;;;;;;;;;;5062974;28;20054;-65
2021/10/29 16:45:16;;;;;;;7.95;3.78;;;;;;;;;;5064184;28;20041;-65
2021/10/29 16:47:43;;;;;;;8.27;4.05;;;;;;;;;;5074215;28;20080;-66
2021/10/29 16:50:10;;;;;;;7.30;3.67;;;;;;;;;;5066508;28;20087;-65
2021/10/29 16:52:36;;;;;;;9.27;4.15;;;;;;;;;;5063211;28;20049;-65
2021/10/29 16:55:02;;;;;;;8.80;3.28;;;;;;;;;;5068562;28;20056;-65
2021/10/29 16:57:28;;;;;;;11.05;4.00;;;;;;;;;;5063929;28;20131;-65
2021/10/29 16:59:54;;;;;;;6.80;4.28;;;;;;;;;;5064142;28;20045;-65
2021/10/29 17:02:20;;;;;;;12.63;4.40;;;;;;;;;;5076181;28;20080;-65
2021/10/29 17:04:47;;;;;;;6.60;4.07;;;;;;;;;;5063967;28;20068;-65
2021/10/29 17:07:13;;;;;;;8.05;4.57;;;;;;;;;;5063658;28;20072;-65
2021/10/29 17:09:39;;;;;;;6.80;4.68;;;;;;;;;;5063630;28;20072;-65
2021/10/29 17:12:06;;;;;;;8.77;4.10;;;;;;;;;;5067913;28;20036;-66
2021/10/29 17:14:32;;;;;;;16.15;4.82;;;;;;;;;;5063031;28;20142;-65
2021/10/29 17:16:58;;;;;;;8.63;4.55;;;;;;;;;;5064008;28;20041;-66
2021/10/29 17:19:24;;;;;;;8.23;5.18;;;;;;;;;;5063605;28;20049;-66
2021/10/29 17:21:51;;;;;;;8.05;4.85;;;;;;;;;;5062373;28;20490;-65
2021/10/29 17:24:18;;;;;;;7.00;5.32;;;;;;;;;;5065788;28;20041;-65
2021/10/29 17:26:44;;;;;;;19.67;5.63;;;;;;;;;;5067495;28;20037;-65
2021/10/29 17:29:10;;;;;;;10.00;5.35;;;;;;;;;;5067435;28;20052;-66
2021/10/29 17:31:37;;;;;;;10.48;5.18;;;;;;;;;;5067759;28;20562;-66
2021/10/29 17:34:05;;;;;;;9.77;5.07;;;;;;;;;;5066225;28;20115;-66
2021/10/29 17:36:31;;;;;;;7.25;5.35;;;;;;;;;;5067650;28;20057;-67
2021/10/29 17:38:58;;;;;;;8.80;5.65;;;;;;;;;;5067832;28;20517;-66
2021/10/29 17:41:24;;;;;;;12.00;5.50;;;;;;;;;;5080919;28;20048;-66
2021/10/29 17:43:50;;;;;;;8.05;5.32;;;;;;;;;;5072683;28;20103;-66
2021/10/29 17:46:16;;;;;;;8.50;5.82;;;;;;;;;;5073426;28;20049;-66
2021/10/29 17:48:42;;;;;;;10.75;5.68;;;;;;;;;;5067006;28;20045;-66
2021/10/29 17:51:09;;;;;;;8.35;5.30;;;;;;;;;;5067265;28;20044;-66
2021/10/29 17:53:35;;;;;;;9.80;5.53;;;;;;;;;;5070180;28;20068;-66
2021/10/29 17:56:01;;;;;;;10.70;4.97;;;;;;;;;;5076691;28;20119;-67
2021/10/29 17:58:28;;;;;;;9.93;4.85;;;;;;;;;;5066821;28;20068;-67
2021/10/29 18:00:54;;;;;;;7.28;4.78;;;;;;;;;;5067345;28;20052;-66
2021/10/29 18:03:25;;;;;;;9.80;5.15;;;;;;;;;;5079157;28;20389;-66
2021/10/29 18:05:51;;;;;;;8.48;4.30;;;;;;;;;;5067416;28;20064;-65
2021/10/29 18:08:24;;;;;;;10.60;4.70;;;;;;;;;;5072046;28;20117;-65
2021/10/29 18:10:50;;;;;;;7.85;4.00;;;;;;;;;;5065406;28;20044;-65
2021/10/29 18:13:16;;;;;;;8.48;4.90;;;;;;;;;;5079324;28;20049;-65
2021/10/29 18:15:45;;;;;;;7.57;4.15;;;;;;;;;;5073707;28;20041;-65
2021/10/29 18:18:12;;;;;;;8.80;4.75;;;;;;;;;;5066864;28;20051;-65
2021/10/29 18:20:38;;;;;;;11.95;5.13;;;;;;;;;;5065586;28;20048;-65
2021/10/29 18:23:05;;;;;;;8.05;4.82;;;;;;;;;;5083463;28;20072;-65
2021/10/29 18:25:31;;;;;;;10.18;4.80;;;;;;;;;;5076520;28;20039;-65
2021/10/29 18:27:57;;;;;;;10.43;4.60;;;;;;;;;;5066986;28;20049;-65
2021/10/29 18:30:25;;;;;;;10.35;4.45;;;;;;;;;;5078829;28;20048;-65
2021/10/29 18:32:52;;;;;;;7.70;4.50;;;;;;;;;;5072493;28;20048;-65
2021/10/29 18:35:18;;;;;;;7.47;4.70;;;;;;;;;;5074494;28;20385;-65
2021/10/29 18:37:45;;;;;;;15.55;4.82;;;;;;;;;;5066641;28;20053;-65
2021/10/29 18:40:11;;;;;;;6.68;4.50;;;;;;;;;;5065325;28;20048;-65
2021/10/29 18:42:37;;;;;;;7.57;4.28;;;;;;;;;;5065330;28;20084;-65
2021/10/29 18:45:05;;;;;;;6.53;4.00;;;;;;;;;;5069428;28;20045;-65
2021/10/29 18:47:31;;;;;;;10.38;4.45;;;;;;;;;;5076602;28;20041;-65
2021/10/29 18:49:57;;;;;;;6.03;3.70;;;;;;;;;;5066252;28;20099;-65
2021/10/29 18:52:23;;;;;;;5.57;4.07;;;;;;;;;;5073348;28;20135;-65
2021/10/29 18:54:49;;;;;;;7.00;3.72;;;;;;;;;;5072934;28;20049;-65
2021/10/29 18:57:16;;;;;;;5.85;3.72;;;;;;;;;;5065887;28;20075;-64
2021/10/29 18:59:42;;;;;;;16.40;4.28;;;;;;;;;;5065993;28;20045;-64
2021/10/29 19:02:11;;;;;;;6.57;4.40;;;;;;;;;;5065869;28;20037;-65
2021/10/29 19:04:37;;;;;;;6.72;3.80;;;;;;;;;;5066129;28;20052;-65
2021/10/29 19:07:04;;;;;;;7.70;4.00;;;;;;;;;;5081849;28;20060;-65
2021/10/29 19:09:31;;;;;;;5.80;3.28;;;;;;;;;;5064981;28;20060;-65
2021/10/29 19:11:57;;;;;;;4.60;2.97;;;;;;;;;;5066066;28;20129;-65
2021/10/29 19:14:24;;;;;;;5.07;3.65;;;;;;;;;;5065958;28;20049;-65
2021/10/29 19:16:50;;;;;;;10.18;3.90;;;;;;;;;;5064499;28;20039;-64
2021/10/29 19:19:17;;;;;;;5.55;3.22;;;;;;;;;;5065962;28;20115;-65
2021/10/29 19:21:44;;;;;;;7.45;3.28;;;;;;;;;;5065764;28;20612;-65
2021/10/29 19:24:10;;;;;;;6.68;2.72;;;;;;;;;;5068101;28;20055;-64
2021/10/29 19:26:36;;;;;;;4.00;2.78;;;;;;;;;;5078838;28;20045;-65
2021/10/29 19:29:03;;;;;;;5.10;2.90;;;;;;;;;;5065705;28;20055;-64
2021/10/29 19:31:30;;;;;;;10.25;2.90;;;;;;;;;;5079338;28;20099;-64
2021/10/29 19:33:56;;;;;;;5.95;2.47;;;;;;;;;;5073616;28;20126;-64
2021/10/29 19:36:40;;;;;;;5.50;2.58;;;;;;;;;;5064281;28;20045;-64
2021/10/29 19:39:33;;;;;;;4.45;2.90;;;;;;;;;;5074066;28;20057;-64
2021/10/29 19:41:55;;;;;;;;;;;;;;;;;;5064506;28;20048;-64
2021/10/29 19:44:21;;;;;;;5.18;2.70;;;;;;;;;;5065328;28;19921;-64